sensor_id;sensor_type;location;lat;lon;timestamp;temperature;humidity
3300;DHT22;1662;49.310;8.134;2023-04-25T00:01:14;9.80;99.90
3300;DHT22;1662;49.310;8.134;2023-04-25T00:03:40;9.80;99.90
3300;DHT22;1662;49.310;8.134;2023-04-25T00:06:06;9.80;99.90
3300;DHT22;1662;49.310;8.134;2023-04-25T00:08:32;9.80;99.90
3300;DHT22;1662;49.310;8.134;2023-04-25T00:10:58;9.70;99.90
3300;DHT22;1662;49.310;8.134;2023-04-25T00:13:24;9.70;99.90
3300;DHT22;1662;49.310;8.134;2023-04-25T00:15:51;9.60;99.90
3300;DHT22;1662;49.310;8.134;2023-04-25T00:18:18;9.70;99.90
3300;DHT22;1662;49.310;8.134;2023-04-25T00:20:46;9.70;99.90
3300;DHT22;1662;49.310;8.134;2023-04-25T00:23:16;9.60;99.90
3300;DHT22;1662;49.310;8.134;2023-04-25T00:25:47;9.70;99.90
3300;DHT22;1662;49.310;8.134;2023-04-25T00:28:13;9.60;99.90
3300;DHT22;1662;49.310;8.134;2023-04-25T00:30:39;9.60;99.90
3300;DHT22;1662;49.310;8.134;2023-04-25T00:33:05;9.70;99.90
3300;DHT22;1662;49.310;8.134;2023-04-25T00:35:31;9.70;99.90
3300;DHT22;1662;49.310;8.134;2023-04-25T00:37:56;9.60;99.90
3300;DHT22;1662;49.310;8.134;2023-04-25T00:40:22;9.60;99.90
3300;DHT22;1662;49.310;8.134;2023-04-25T00:42:49;9.60;99.90
3300;DHT22;1662;49.310;8.134;2023-04-25T00:45:17;9.60;99.90
3300;DHT22;1662;49.310;8.134;2023-04-25T00:47:43;9.60;99.90
3300;DHT22;1662;49.310;8.134;2023-04-25T00:50:09;9.60;99.90
3300;DHT22;1662;49.310;8.134;2023-04-25T00:52:37;9.60;99.90
3300;DHT22;1662;49.310;8.134;2023-04-25T00:55:04;9.60;99.90
3300;DHT22;1662;49.310;8.134;2023-04-25T00:57:29;9.50;99.90
3300;DHT22;1662;49.310;8.134;2023-04-25T00:59:55;9.60;99.90
3300;DHT22;1662;49.310;8.134;2023-04-25T01:02:21;9.50;99.90
3300;DHT22;1662;49.310;8.134;2023-04-25T01:04:48;9.50;99.90
3300;DHT22;1662;49.310;8.134;2023-04-25T01:07:13;9.50;99.90
3300;DHT22;1662;49.310;8.134;2023-04-25T01:09:40;9.40;99.90
3300;DHT22;1662;49.310;8.134;2023-04-25T01:12:06;9.50;99.90
3300;DHT22;1662;49.310;8.134;2023-04-25T01:14:32;9.50;99.90
3300;DHT22;1662;49.310;8.134;2023-04-25T01:16:58;9.50;99.90
3300;DHT22;1662;49.310;8.134;2023-04-25T01:19:24;9.50;99.90
3300;DHT22;1662;49.310;8.134;2023-04-25T01:21:50;9.50;99.90
3300;DHT22;1662;49.310;8.134;2023-04-25T01:24:16;9.50;99.90
3300;DHT22;1662;49.310;8.134;2023-04-25T01:26:42;9.40;99.90
3300;DHT22;1662;49.310;8.134;2023-04-25T01:29:19;9.40;99.90
3300;DHT22;1662;49.310;8.134;2023-04-25T01:31:45;9.40;99.90
3300;DHT22;1662;49.310;8.134;2023-04-25T01:34:12;9.40;99.90
3300;DHT22;1662;49.310;8.134;2023-04-25T01:36:37;9.40;99.90
3300;DHT22;1662;49.310;8.134;2023-04-25T01:39:03;9.40;99.90
3300;DHT22;1662;49.310;8.134;2023-04-25T01:41:29;9.40;99.90
3300;DHT22;1662;49.310;8.134;2023-04-25T01:43:55;9.40;99.90
3300;DHT22;1662;49.310;8.134;2023-04-25T01:46:21;9.40;99.90
3300;DHT22;1662;49.310;8.134;2023-04-25T01:48:47;9.40;99.90
3300;DHT22;1662;49.310;8.134;2023-04-25T01:51:13;9.40;99.90
3300;DHT22;1662;49.310;8.134;2023-04-25T01:53:39;9.40;99.90
3300;DHT22;1662;49.310;8.134;2023-04-25T01:56:05;9.40;99.90
3300;DHT22;1662;49.310;8.134;2023-04-25T01:58:31;9.40;99.90
3300;DHT22;1662;49.310;8.134;2023-04-25T02:00:57;9.30;99.90
3300;DHT22;1662;49.310;8.134;2023-04-25T02:03:25;9.30;99.90
3300;DHT22;1662;49.310;8.134;2023-04-25T02:05:50;9.30;99.90
3300;DHT22;1662;49.310;8.134;2023-04-25T02:08:17;9.30;99.90
3300;DHT22;1662;49.310;8.134;2023-04-25T02:10:43;9.40;99.90
3300;DHT22;1662;49.310;8.134;2023-04-25T02:13:09;9.40;99.90
3300;DHT22;1662;49.310;8.134;2023-04-25T02:15:35;9.30;99.90
3300;DHT22;1662;49.310;8.134;2023-04-25T02:18:00;9.40;99.90
3300;DHT22;1662;49.310;8.134;2023-04-25T02:20:27;9.30;99.90
3300;DHT22;1662;49.310;8.134;2023-04-25T02:22:53;9.30;99.90
3300;DHT22;1662;49.310;8.134;2023-04-25T02:25:19;9.30;99.90
3300;DHT22;1662;49.310;8.134;2023-04-25T02:27:46;9.30;99.90
3300;DHT22;1662;49.310;8.134;2023-04-25T02:30:11;9.30;99.90
3300;DHT22;1662;49.310;8.134;2023-04-25T02:32:38;9.20;99.90
3300;DHT22;1662;49.310;8.134;2023-04-25T02:35:04;9.20;99.90
3300;DHT22;1662;49.310;8.134;2023-04-25T02:37:30;9.10;99.90
3300;DHT22;1662;49.310;8.134;2023-04-25T02:39:56;9.10;99.90
3300;DHT22;1662;49.310;8.134;2023-04-25T02:42:22;9.10;99.90
3300;DHT22;1662;49.310;8.134;2023-04-25T02:44:48;9.10;99.90
3300;DHT22;1662;49.310;8.134;2023-04-25T02:47:13;9.10;99.90
3300;DHT22;1662;49.310;8.134;2023-04-25T02:49:39;9.10;99.90
3300;DHT22;1662;49.310;8.134;2023-04-25T02:52:05;9.00;99.90
3300;DHT22;1662;49.310;8.134;2023-04-25T02:54:31;9.20;99.90
3300;DHT22;1662;49.310;8.134;2023-04-25T02:56:56;9.00;99.90
3300;DHT22;1662;49.310;8.134;2023-04-25T02:59:22;9.00;99.90
3300;DHT22;1662;49.310;8.134;2023-04-25T03:01:48;9.00;99.90
3300;DHT22;1662;49.310;8.134;2023-04-25T03:04:13;9.00;99.90
3300;DHT22;1662;49.310;8.134;2023-04-25T03:06:39;8.90;99.90
3300;DHT22;1662;49.310;8.134;2023-04-25T03:09:05;8.90;99.90
3300;DHT22;1662;49.310;8.134;2023-04-25T03:11:33;8.90;99.90
3300;DHT22;1662;49.310;8.134;2023-04-25T03:13:58;8.90;99.90
3300;DHT22;1662;49.310;8.134;2023-04-25T03:16:24;8.80;99.90
3300;DHT22;1662;49.310;8.134;2023-04-25T03:18:50;8.80;99.90
3300;DHT22;1662;49.310;8.134;2023-04-25T03:21:16;8.80;99.90
3300;DHT22;1662;49.310;8.134;2023-04-25T03:23:42;8.80;99.90
3300;DHT22;1662;49.310;8.134;2023-04-25T03:26:08;8.80;99.90
3300;DHT22;1662;49.310;8.134;2023-04-25T03:28:36;8.70;99.90
3300;DHT22;1662;49.310;8.134;2023-04-25T03:31:01;8.70;99.90
3300;DHT22;1662;49.310;8.134;2023-04-25T03:33:27;8.80;99.90
3300;DHT22;1662;49.310;8.134;2023-04-25T03:35:55;8.80;99.90
3300;DHT22;1662;49.310;8.134;2023-04-25T03:38:20;8.80;99.90
3300;DHT22;1662;49.310;8.134;2023-04-25T03:40:46;8.80;99.90
3300;DHT22;1662;49.310;8.134;2023-04-25T03:43:11;8.80;99.90
3300;DHT22;1662;49.310;8.134;2023-04-25T03:45:37;8.80;99.90
3300;DHT22;1662;49.310;8.134;2023-04-25T03:48:05;8.80;99.90
3300;DHT22;1662;49.310;8.134;2023-04-25T03:50:31;8.80;99.90
3300;DHT22;1662;49.310;8.134;2023-04-25T03:52:56;8.70;99.90
3300;DHT22;1662;49.310;8.134;2023-04-25T03:55:22;8.70;99.90
3300;DHT22;1662;49.310;8.134;2023-04-25T03:57:47;8.60;99.90
3300;DHT22;1662;49.310;8.134;2023-04-25T04:00:13;8.50;99.90
3300;DHT22;1662;49.310;8.134;2023-04-25T04:02:39;8.50;99.90
3300;DHT22;1662;49.310;8.134;2023-04-25T04:05:05;8.40;99.90
3300;DHT22;1662;49.310;8.134;2023-04-25T04:07:31;8.50;99.90
3300;DHT22;1662;49.310;8.134;2023-04-25T04:09:58;8.50;99.90
3300;DHT22;1662;49.310;8.134;2023-04-25T04:12:24;8.50;99.90
3300;DHT22;1662;49.310;8.134;2023-04-25T04:14:49;8.40;99.90
3300;DHT22;1662;49.310;8.134;2023-04-25T04:17:15;8.50;99.90
3300;DHT22;1662;49.310;8.134;2023-04-25T04:19:41;8.50;99.90
3300;DHT22;1662;49.310;8.134;2023-04-25T04:22:07;8.50;99.90
3300;DHT22;1662;49.310;8.134;2023-04-25T04:24:35;8.50;99.90
3300;DHT22;1662;49.310;8.134;2023-04-25T04:27:00;8.50;99.90
3300;DHT22;1662;49.310;8.134;2023-04-25T04:29:26;8.40;99.90
3300;DHT22;1662;49.310;8.134;2023-04-25T04:31:52;8.50;99.90
3300;DHT22;1662;49.310;8.134;2023-04-25T04:34:18;8.50;99.90
3300;DHT22;1662;49.310;8.134;2023-04-25T04:36:44;8.50;99.90
3300;DHT22;1662;49.310;8.134;2023-04-25T04:39:13;8.50;99.90
3300;DHT22;1662;49.310;8.134;2023-04-25T04:41:39;8.60;99.90
3300;DHT22;1662;49.310;8.134;2023-04-25T04:44:05;8.70;99.90
3300;DHT22;1662;49.310;8.134;2023-04-25T04:46:32;8.70;99.90
3300;DHT22;1662;49.310;8.134;2023-04-25T04:49:05;8.70;99.90
3300;DHT22;1662;49.310;8.134;2023-04-25T04:51:31;8.80;99.90
3300;DHT22;1662;49.310;8.134;2023-04-25T04:53:59;8.80;99.90
3300;DHT22;1662;49.310;8.134;2023-04-25T04:56:30;8.80;99.90
3300;DHT22;1662;49.310;8.134;2023-04-25T04:58:59;8.80;99.90
3300;DHT22;1662;49.310;8.134;2023-04-25T05:01:25;8.80;99.90
3300;DHT22;1662;49.310;8.134;2023-04-25T05:03:52;8.80;99.90
3300;DHT22;1662;49.310;8.134;2023-04-25T05:06:19;8.80;99.90
3300;DHT22;1662;49.310;8.134;2023-04-25T05:08:45;8.90;99.90
3300;DHT22;1662;49.310;8.134;2023-04-25T05:11:10;8.80;99.90
3300;DHT22;1662;49.310;8.134;2023-04-25T05:13:38;9.00;99.90
3300;DHT22;1662;49.310;8.134;2023-04-25T05:16:04;8.90;99.90
3300;DHT22;1662;49.310;8.134;2023-04-25T05:18:31;9.00;99.90
3300;DHT22;1662;49.310;8.134;2023-04-25T05:20:59;8.90;99.90
3300;DHT22;1662;49.310;8.134;2023-04-25T05:23:27;9.00;99.90
3300;DHT22;1662;49.310;8.134;2023-04-25T05:25:56;8.90;99.90
3300;DHT22;1662;49.310;8.134;2023-04-25T05:28:21;8.90;99.90
3300;DHT22;1662;49.310;8.134;2023-04-25T05:30:47;8.70;99.90
3300;DHT22;1662;49.310;8.134;2023-04-25T05:33:13;9.00;99.90
3300;DHT22;1662;49.310;8.134;2023-04-25T05:35:39;9.10;99.90
3300;DHT22;1662;49.310;8.134;2023-04-25T05:38:04;9.10;99.90
3300;DHT22;1662;49.310;8.134;2023-04-25T05:40:30;9.10;99.90
3300;DHT22;1662;49.310;8.134;2023-04-25T05:42:55;9.10;99.90
3300;DHT22;1662;49.310;8.134;2023-04-25T05:45:21;9.20;99.90
3300;DHT22;1662;49.310;8.134;2023-04-25T05:47:46;9.10;99.90
3300;DHT22;1662;49.310;8.134;2023-04-25T05:50:12;9.00;99.90
3300;DHT22;1662;49.310;8.134;2023-04-25T05:52:38;9.00;99.90
3300;DHT22;1662;49.310;8.134;2023-04-25T05:55:07;9.10;99.90
3300;DHT22;1662;49.310;8.134;2023-04-25T05:57:33;9.10;99.90
3300;DHT22;1662;49.310;8.134;2023-04-25T05:59:58;9.10;99.90
3300;DHT22;1662;49.310;8.134;2023-04-25T06:02:24;9.10;99.90
3300;DHT22;1662;49.310;8.134;2023-04-25T06:04:50;9.10;99.90
3300;DHT22;1662;49.310;8.134;2023-04-25T06:07:16;9.10;99.90
3300;DHT22;1662;49.310;8.134;2023-04-25T06:09:42;9.00;99.90
3300;DHT22;1662;49.310;8.134;2023-04-25T06:12:08;9.10;99.90
3300;DHT22;1662;49.310;8.134;2023-04-25T06:14:34;9.00;99.90
3300;DHT22;1662;49.310;8.134;2023-04-25T06:17:00;9.10;99.90
3300;DHT22;1662;49.310;8.134;2023-04-25T06:19:35;9.10;99.90
3300;DHT22;1662;49.310;8.134;2023-04-25T06:22:01;9.10;99.90
3300;DHT22;1662;49.310;8.134;2023-04-25T06:24:27;9.30;99.90
3300;DHT22;1662;49.310;8.134;2023-04-25T06:26:55;9.10;99.90
3300;DHT22;1662;49.310;8.134;2023-04-25T06:29:21;9.10;99.90
3300;DHT22;1662;49.310;8.134;2023-04-25T06:31:46;9.10;99.90
3300;DHT22;1662;49.310;8.134;2023-04-25T06:34:12;9.10;99.90
3300;DHT22;1662;49.310;8.134;2023-04-25T06:36:38;9.00;99.90
3300;DHT22;1662;49.310;8.134;2023-04-25T06:39:03;9.10;99.90
3300;DHT22;1662;49.310;8.134;2023-04-25T06:41:29;9.20;99.90
3300;DHT22;1662;49.310;8.134;2023-04-25T06:43:54;9.10;99.90
3300;DHT22;1662;49.310;8.134;2023-04-25T06:46:20;9.10;99.90
3300;DHT22;1662;49.310;8.134;2023-04-25T06:48:46;9.30;99.90
3300;DHT22;1662;49.310;8.134;2023-04-25T06:51:14;9.80;99.90
3300;DHT22;1662;49.310;8.134;2023-04-25T06:53:40;9.90;99.90
3300;DHT22;1662;49.310;8.134;2023-04-25T06:56:06;9.80;99.90
3300;DHT22;1662;49.310;8.134;2023-04-25T06:58:31;9.70;99.90
3300;DHT22;1662;49.310;8.134;2023-04-25T07:00:57;9.50;99.90
3300;DHT22;1662;49.310;8.134;2023-04-25T07:03:22;9.40;99.90
3300;DHT22;1662;49.310;8.134;2023-04-25T07:05:49;9.40;99.90
3300;DHT22;1662;49.310;8.134;2023-04-25T07:08:15;9.40;99.90
3300;DHT22;1662;49.310;8.134;2023-04-25T07:10:41;9.30;99.90
3300;DHT22;1662;49.310;8.134;2023-04-25T07:13:06;9.30;99.90
3300;DHT22;1662;49.310;8.134;2023-04-25T07:15:32;9.50;99.90
3300;DHT22;1662;49.310;8.134;2023-04-25T07:17:58;9.40;99.90
3300;DHT22;1662;49.310;8.134;2023-04-25T07:20:23;9.30;99.90
3300;DHT22;1662;49.310;8.134;2023-04-25T07:22:49;9.30;99.90
3300;DHT22;1662;49.310;8.134;2023-04-25T07:25:16;9.30;99.90
3300;DHT22;1662;49.310;8.134;2023-04-25T07:27:41;9.20;99.90
3300;DHT22;1662;49.310;8.134;2023-04-25T07:30:07;9.20;99.90
3300;DHT22;1662;49.310;8.134;2023-04-25T07:32:35;9.30;99.90
3300;DHT22;1662;49.310;8.134;2023-04-25T07:35:04;9.30;99.90
3300;DHT22;1662;49.310;8.134;2023-04-25T07:37:29;9.30;99.90
3300;DHT22;1662;49.310;8.134;2023-04-25T07:39:57;9.60;99.90
3300;DHT22;1662;49.310;8.134;2023-04-25T07:42:23;9.40;99.90
3300;DHT22;1662;49.310;8.134;2023-04-25T07:44:48;9.40;99.90
3300;DHT22;1662;49.310;8.134;2023-04-25T07:47:14;9.40;99.90
3300;DHT22;1662;49.310;8.134;2023-04-25T07:49:40;9.60;99.90
3300;DHT22;1662;49.310;8.134;2023-04-25T07:52:05;9.50;99.90
3300;DHT22;1662;49.310;8.134;2023-04-25T07:54:31;9.50;99.90
3300;DHT22;1662;49.310;8.134;2023-04-25T07:59:25;10.30;99.90
3300;DHT22;1662;49.310;8.134;2023-04-25T08:01:50;9.60;99.90
3300;DHT22;1662;49.310;8.134;2023-04-25T08:04:16;9.60;99.90
3300;DHT22;1662;49.310;8.134;2023-04-25T08:06:42;9.50;99.90
3300;DHT22;1662;49.310;8.134;2023-04-25T08:11:35;9.70;99.90
3300;DHT22;1662;49.310;8.134;2023-04-25T08:14:01;9.70;99.90
3300;DHT22;1662;49.310;8.134;2023-04-25T08:16:27;9.60;99.90
3300;DHT22;1662;49.310;8.134;2023-04-25T08:18:53;9.70;99.90
3300;DHT22;1662;49.310;8.134;2023-04-25T08:21:18;9.50;99.90
3300;DHT22;1662;49.310;8.134;2023-04-25T08:23:44;9.50;99.90
3300;DHT22;1662;49.310;8.134;2023-04-25T08:26:10;9.50;99.90
3300;DHT22;1662;49.310;8.134;2023-04-25T08:28:36;9.40;99.90
3300;DHT22;1662;49.310;8.134;2023-04-25T08:31:02;9.40;99.90
3300;DHT22;1662;49.310;8.134;2023-04-25T08:33:27;9.40;99.90
3300;DHT22;1662;49.310;8.134;2023-04-25T08:35:54;9.40;99.90
3300;DHT22;1662;49.310;8.134;2023-04-25T08:38:19;9.50;99.90
3300;DHT22;1662;49.310;8.134;2023-04-25T08:40:49;9.40;99.90
3300;DHT22;1662;49.310;8.134;2023-04-25T08:43:18;9.30;99.90
3300;DHT22;1662;49.310;8.134;2023-04-25T08:45:44;9.20;99.90
3300;DHT22;1662;49.310;8.134;2023-04-25T08:48:13;9.20;99.90
3300;DHT22;1662;49.310;8.134;2023-04-25T08:50:53;9.30;99.90
3300;DHT22;1662;49.310;8.134;2023-04-25T08:53:26;9.20;99.90
3300;DHT22;1662;49.310;8.134;2023-04-25T08:55:53;9.20;99.90
3300;DHT22;1662;49.310;8.134;2023-04-25T08:58:20;9.20;99.90
3300;DHT22;1662;49.310;8.134;2023-04-25T09:00:47;9.30;99.90
3300;DHT22;1662;49.310;8.134;2023-04-25T09:03:13;9.30;99.90
3300;DHT22;1662;49.310;8.134;2023-04-25T09:05:40;9.30;99.90
3300;DHT22;1662;49.310;8.134;2023-04-25T09:08:07;9.30;99.90
3300;DHT22;1662;49.310;8.134;2023-04-25T09:10:33;9.30;99.90
3300;DHT22;1662;49.310;8.134;2023-04-25T09:13:07;9.30;99.90
3300;DHT22;1662;49.310;8.134;2023-04-25T09:15:53;9.30;99.90
3300;DHT22;1662;49.310;8.134;2023-04-25T09:20:48;9.30;99.90
3300;DHT22;1662;49.310;8.134;2023-04-25T09:23:14;9.30;99.90
3300;DHT22;1662;49.310;8.134;2023-04-25T09:25:40;9.30;99.90
3300;DHT22;1662;49.310;8.134;2023-04-25T09:28:07;9.30;99.90
3300;DHT22;1662;49.310;8.134;2023-04-25T09:30:34;9.30;99.90
3300;DHT22;1662;49.310;8.134;2023-04-25T09:33:08;9.30;99.90
3300;DHT22;1662;49.310;8.134;2023-04-25T09:35:42;9.30;99.90
3300;DHT22;1662;49.310;8.134;2023-04-25T09:38:12;9.30;99.90
3300;DHT22;1662;49.310;8.134;2023-04-25T09:40:47;9.30;99.90
3300;DHT22;1662;49.310;8.134;2023-04-25T09:43:22;9.30;99.90
3300;DHT22;1662;49.310;8.134;2023-04-25T09:45:48;9.40;99.90
3300;DHT22;1662;49.310;8.134;2023-04-25T09:48:24;9.40;99.90
3300;DHT22;1662;49.310;8.134;2023-04-25T09:53:36;9.50;99.90
3300;DHT22;1662;49.310;8.134;2023-04-25T09:56:04;9.50;99.90
3300;DHT22;1662;49.310;8.134;2023-04-25T09:58:31;9.50;99.90
3300;DHT22;1662;49.310;8.134;2023-04-25T10:01:01;9.50;99.90
3300;DHT22;1662;49.310;8.134;2023-04-25T10:03:30;9.50;99.90
3300;DHT22;1662;49.310;8.134;2023-04-25T10:05:59;9.50;99.90
3300;DHT22;1662;49.310;8.134;2023-04-25T10:08:26;9.50;99.90
3300;DHT22;1662;49.310;8.134;2023-04-25T10:10:53;9.50;99.90
3300;DHT22;1662;49.310;8.134;2023-04-25T10:13:19;9.50;99.90
3300;DHT22;1662;49.310;8.134;2023-04-25T10:15:45;9.50;99.90
3300;DHT22;1662;49.310;8.134;2023-04-25T10:18:12;9.40;99.90
3300;DHT22;1662;49.310;8.134;2023-04-25T10:20:38;9.40;99.90
3300;DHT22;1662;49.310;8.134;2023-04-25T10:23:13;9.30;99.90
3300;DHT22;1662;49.310;8.134;2023-04-25T10:25:41;9.40;99.90
3300;DHT22;1662;49.310;8.134;2023-04-25T10:28:07;9.30;99.90
3300;DHT22;1662;49.310;8.134;2023-04-25T10:30:32;9.30;99.90
3300;DHT22;1662;49.310;8.134;2023-04-25T10:32:59;9.30;99.90
3300;DHT22;1662;49.310;8.134;2023-04-25T10:35:25;9.30;99.90
3300;DHT22;1662;49.310;8.134;2023-04-25T10:40:24;10.40;99.90
3300;DHT22;1662;49.310;8.134;2023-04-25T10:42:52;11.00;99.90
3300;DHT22;1662;49.310;8.134;2023-04-25T10:45:20;11.00;99.90
3300;DHT22;1662;49.310;8.134;2023-04-25T10:47:45;10.80;99.90
3300;DHT22;1662;49.310;8.134;2023-04-25T10:50:12;10.60;99.90
3300;DHT22;1662;49.310;8.134;2023-04-25T10:52:39;10.50;99.90
3300;DHT22;1662;49.310;8.134;2023-04-25T10:55:10;10.40;99.90
3300;DHT22;1662;49.310;8.134;2023-04-25T11:00:14;10.40;99.90
3300;DHT22;1662;49.310;8.134;2023-04-25T11:07:53;10.50;99.90
3300;DHT22;1662;49.310;8.134;2023-04-25T11:10:30;10.50;99.90
3300;DHT22;1662;49.310;8.134;2023-04-25T11:12:57;10.60;99.90
3300;DHT22;1662;49.310;8.134;2023-04-25T11:15:23;10.60;99.90
3300;DHT22;1662;49.310;8.134;2023-04-25T11:17:51;10.60;99.90
3300;DHT22;1662;49.310;8.134;2023-04-25T11:20:17;10.60;99.90
3300;DHT22;1662;49.310;8.134;2023-04-25T11:22:44;10.70;99.90
3300;DHT22;1662;49.310;8.134;2023-04-25T11:25:11;10.70;99.90
3300;DHT22;1662;49.310;8.134;2023-04-25T11:27:48;10.60;99.90
3300;DHT22;1662;49.310;8.134;2023-04-25T11:30:15;10.70;99.90
3300;DHT22;1662;49.310;8.134;2023-04-25T11:32:41;10.70;99.90
3300;DHT22;1662;49.310;8.134;2023-04-25T11:35:09;10.70;99.90
3300;DHT22;1662;49.310;8.134;2023-04-25T11:37:41;10.80;99.90
3300;DHT22;1662;49.310;8.134;2023-04-25T11:40:11;10.80;99.90
3300;DHT22;1662;49.310;8.134;2023-04-25T11:42:38;10.90;99.90
3300;DHT22;1662;49.310;8.134;2023-04-25T11:45:04;11.00;99.90
3300;DHT22;1662;49.310;8.134;2023-04-25T11:47:31;11.10;99.90
3300;DHT22;1662;49.310;8.134;2023-04-25T11:50:02;11.10;99.90
3300;DHT22;1662;49.310;8.134;2023-04-25T11:52:45;11.10;99.90
3300;DHT22;1662;49.310;8.134;2023-04-25T11:55:17;11.10;99.90
3300;DHT22;1662;49.310;8.134;2023-04-25T11:57:45;11.10;99.90
3300;DHT22;1662;49.310;8.134;2023-04-25T12:00:14;11.10;99.90
3300;DHT22;1662;49.310;8.134;2023-04-25T12:02:43;11.20;99.90
3300;DHT22;1662;49.310;8.134;2023-04-25T12:05:10;11.20;99.90
3300;DHT22;1662;49.310;8.134;2023-04-25T12:07:36;11.30;99.90
3300;DHT22;1662;49.310;8.134;2023-04-25T12:10:07;11.40;99.90
3300;DHT22;1662;49.310;8.134;2023-04-25T12:12:35;11.80;99.90
3300;DHT22;1662;49.310;8.134;2023-04-25T12:17:41;12.00;99.90
3300;DHT22;1662;49.310;8.134;2023-04-25T12:20:09;12.00;99.90
3300;DHT22;1662;49.310;8.134;2023-04-25T12:22:35;11.90;99.90
3300;DHT22;1662;49.310;8.134;2023-04-25T12:25:02;11.90;99.90
3300;DHT22;1662;49.310;8.134;2023-04-25T12:27:31;12.00;99.90
3300;DHT22;1662;49.310;8.134;2023-04-25T12:29:57;12.10;99.90
3300;DHT22;1662;49.310;8.134;2023-04-25T12:32:22;12.20;99.90
3300;DHT22;1662;49.310;8.134;2023-04-25T12:34:48;12.20;99.90
3300;DHT22;1662;49.310;8.134;2023-04-25T12:37:14;12.20;99.90
3300;DHT22;1662;49.310;8.134;2023-04-25T12:39:40;12.20;99.90
3300;DHT22;1662;49.310;8.134;2023-04-25T12:42:05;12.10;99.90
3300;DHT22;1662;49.310;8.134;2023-04-25T12:44:33;12.30;99.90
3300;DHT22;1662;49.310;8.134;2023-04-25T12:46:59;12.20;99.90
3300;DHT22;1662;49.310;8.134;2023-04-25T12:49:25;12.40;99.90
3300;DHT22;1662;49.310;8.134;2023-04-25T12:51:51;12.50;99.90
3300;DHT22;1662;49.310;8.134;2023-04-25T12:54:17;12.20;99.90
3300;DHT22;1662;49.310;8.134;2023-04-25T12:56:42;12.20;99.90
3300;DHT22;1662;49.310;8.134;2023-04-25T12:59:08;12.10;99.90
3300;DHT22;1662;49.310;8.134;2023-04-25T13:01:38;12.10;99.90
3300;DHT22;1662;49.310;8.134;2023-04-25T13:04:04;12.10;99.90
3300;DHT22;1662;49.310;8.134;2023-04-25T13:06:30;12.10;99.90
3300;DHT22;1662;49.310;8.134;2023-04-25T13:08:56;12.30;99.90
3300;DHT22;1662;49.310;8.134;2023-04-25T13:11:21;12.40;99.90
3300;DHT22;1662;49.310;8.134;2023-04-25T13:13:47;12.50;99.90
3300;DHT22;1662;49.310;8.134;2023-04-25T13:16:15;12.50;99.90
3300;DHT22;1662;49.310;8.134;2023-04-25T13:18:41;12.40;99.90
3300;DHT22;1662;49.310;8.134;2023-04-25T13:21:06;12.30;99.90
3300;DHT22;1662;49.310;8.134;2023-04-25T13:23:32;12.30;99.90
3300;DHT22;1662;49.310;8.134;2023-04-25T13:25:58;12.30;99.90
3300;DHT22;1662;49.310;8.134;2023-04-25T13:28:27;12.30;99.90
3300;DHT22;1662;49.310;8.134;2023-04-25T13:30:52;12.30;99.90
3300;DHT22;1662;49.310;8.134;2023-04-25T13:33:21;12.30;99.90
3300;DHT22;1662;49.310;8.134;2023-04-25T13:35:48;12.30;99.90
3300;DHT22;1662;49.310;8.134;2023-04-25T13:38:22;12.40;99.90
3300;DHT22;1662;49.310;8.134;2023-04-25T13:40:48;12.40;99.90
3300;DHT22;1662;49.310;8.134;2023-04-25T13:43:14;12.40;99.90
3300;DHT22;1662;49.310;8.134;2023-04-25T13:45:43;12.40;99.90
3300;DHT22;1662;49.310;8.134;2023-04-25T13:48:08;12.30;99.90
3300;DHT22;1662;49.310;8.134;2023-04-25T13:50:34;12.40;99.90
3300;DHT22;1662;49.310;8.134;2023-04-25T13:53:00;12.40;99.90
3300;DHT22;1662;49.310;8.134;2023-04-25T13:55:26;12.50;99.90
3300;DHT22;1662;49.310;8.134;2023-04-25T13:57:52;12.50;99.90
3300;DHT22;1662;49.310;8.134;2023-04-25T14:00:17;12.60;99.90
3300;DHT22;1662;49.310;8.134;2023-04-25T14:02:43;12.60;99.90
3300;DHT22;1662;49.310;8.134;2023-04-25T14:05:09;12.70;99.90
3300;DHT22;1662;49.310;8.134;2023-04-25T14:07:34;12.80;99.90
3300;DHT22;1662;49.310;8.134;2023-04-25T14:10:01;12.80;99.90
3300;DHT22;1662;49.310;8.134;2023-04-25T14:12:27;12.80;99.90
3300;DHT22;1662;49.310;8.134;2023-04-25T14:14:52;12.80;99.90
3300;DHT22;1662;49.310;8.134;2023-04-25T14:17:21;12.90;99.90
3300;DHT22;1662;49.310;8.134;2023-04-25T14:19:46;13.00;99.90
3300;DHT22;1662;49.310;8.134;2023-04-25T14:22:14;13.00;99.90
3300;DHT22;1662;49.310;8.134;2023-04-25T14:24:40;12.90;99.90
3300;DHT22;1662;49.310;8.134;2023-04-25T14:27:09;12.80;99.90
3300;DHT22;1662;49.310;8.134;2023-04-25T14:29:37;12.80;99.90
3300;DHT22;1662;49.310;8.134;2023-04-25T14:32:03;12.90;99.90
3300;DHT22;1662;49.310;8.134;2023-04-25T14:34:32;12.90;99.90
3300;DHT22;1662;49.310;8.134;2023-04-25T14:36:58;12.80;99.90
3300;DHT22;1662;49.310;8.134;2023-04-25T14:39:24;12.80;99.90
3300;DHT22;1662;49.310;8.134;2023-04-25T14:41:52;12.70;99.90
3300;DHT22;1662;49.310;8.134;2023-04-25T14:44:17;12.60;99.90
3300;DHT22;1662;49.310;8.134;2023-04-25T14:46:43;12.50;99.90
3300;DHT22;1662;49.310;8.134;2023-04-25T14:49:09;12.50;99.90
3300;DHT22;1662;49.310;8.134;2023-04-25T14:51:36;12.30;99.90
3300;DHT22;1662;49.310;8.134;2023-04-25T14:54:02;12.20;99.90
3300;DHT22;1662;49.310;8.134;2023-04-25T14:56:30;12.20;99.90
3300;DHT22;1662;49.310;8.134;2023-04-25T14:58:55;12.10;99.90
3300;DHT22;1662;49.310;8.134;2023-04-25T15:01:22;12.00;99.90
3300;DHT22;1662;49.310;8.134;2023-04-25T15:03:47;12.10;99.90
3300;DHT22;1662;49.310;8.134;2023-04-25T15:06:13;12.20;99.90
3300;DHT22;1662;49.310;8.134;2023-04-25T15:08:39;12.20;99.90
3300;DHT22;1662;49.310;8.134;2023-04-25T15:11:05;12.10;99.90
3300;DHT22;1662;49.310;8.134;2023-04-25T15:13:33;11.90;99.90
3300;DHT22;1662;49.310;8.134;2023-04-25T15:16:00;11.80;99.90
3300;DHT22;1662;49.310;8.134;2023-04-25T15:18:25;11.80;99.90
3300;DHT22;1662;49.310;8.134;2023-04-25T15:20:52;11.80;99.90
3300;DHT22;1662;49.310;8.134;2023-04-25T15:23:18;11.70;99.90
3300;DHT22;1662;49.310;8.134;2023-04-25T15:25:45;11.70;99.90
3300;DHT22;1662;49.310;8.134;2023-04-25T15:28:10;11.70;99.90
3300;DHT22;1662;49.310;8.134;2023-04-25T15:30:36;11.70;99.90
3300;DHT22;1662;49.310;8.134;2023-04-25T15:33:02;11.70;99.90
3300;DHT22;1662;49.310;8.134;2023-04-25T15:35:28;11.70;99.90
3300;DHT22;1662;49.310;8.134;2023-04-25T15:37:53;11.80;99.90
3300;DHT22;1662;49.310;8.134;2023-04-25T15:40:19;11.80;99.90
3300;DHT22;1662;49.310;8.134;2023-04-25T15:42:46;11.80;99.90
3300;DHT22;1662;49.310;8.134;2023-04-25T15:45:14;11.80;99.90
3300;DHT22;1662;49.310;8.134;2023-04-25T15:47:40;11.80;99.90
3300;DHT22;1662;49.310;8.134;2023-04-25T15:50:07;11.90;99.90
3300;DHT22;1662;49.310;8.134;2023-04-25T15:52:33;11.80;99.90
3300;DHT22;1662;49.310;8.134;2023-04-25T15:54:59;11.80;99.90
3300;DHT22;1662;49.310;8.134;2023-04-25T15:57:25;11.80;99.90
3300;DHT22;1662;49.310;8.134;2023-04-25T15:59:51;11.80;99.90
3300;DHT22;1662;49.310;8.134;2023-04-25T16:02:17;11.90;99.90
3300;DHT22;1662;49.310;8.134;2023-04-25T16:04:43;11.80;99.90
3300;DHT22;1662;49.310;8.134;2023-04-25T16:07:09;11.70;99.90
3300;DHT22;1662;49.310;8.134;2023-04-25T16:09:35;11.70;99.90
3300;DHT22;1662;49.310;8.134;2023-04-25T16:12:01;11.70;99.90
3300;DHT22;1662;49.310;8.134;2023-04-25T16:14:27;11.60;99.90
3300;DHT22;1662;49.310;8.134;2023-04-25T16:16:52;11.50;99.90
3300;DHT22;1662;49.310;8.134;2023-04-25T16:19:18;11.50;99.90
3300;DHT22;1662;49.310;8.134;2023-04-25T16:21:43;11.40;99.90
3300;DHT22;1662;49.310;8.134;2023-04-25T16:24:09;11.20;99.90
3300;DHT22;1662;49.310;8.134;2023-04-25T16:26:35;11.10;99.90
3300;DHT22;1662;49.310;8.134;2023-04-25T16:29:04;11.00;99.90
3300;DHT22;1662;49.310;8.134;2023-04-25T16:31:31;11.00;99.90